Have a Safe July 4th! 

Flight Track Log - Related Links

Times and Time Zones

All times are in EST time to prevent confusion due to time zone crossing. See the N354LQ flight status page for this flight to view local times or setup timezone preferences in your user account.

Time Position Orientation Groundspeed Altitude Reporting Facility
EST Latitude Longitude Course Direction KTS MPH feet Rate Location/Type
Thu 06:16:17 PM 29.5611 -95.6511 276° West 225 259 2,000  Level Houston Center
Thu 06:17:01 PM 29.5156 -95.6603 190° South 267 307 2,900 1,935 Climbing Houston Center
Thu 06:17:19 PM 29.5028 -95.6794 233° Southwest 250 288 4,000 2,516 Climbing Houston Center
Thu 06:18:03 PM 29.4975 -95.7333 264° West 252 290 5,500 2,557 Climbing Houston Center
Thu 06:18:20 PM 29.4978 -95.7617 271° West 268 308 6,600 2,762 Climbing Houston Center
Thu 06:19:06 PM 29.5003 -95.8197 273° West 268 308 8,400 2,852 Climbing Houston Center
Thu 06:19:21 PM 29.5014 -95.8500 272° West 275 316 9,500 2,226 Climbing Houston Center
Thu 06:20:08 PM 29.5300 -95.9006 303° West 286 329 10,700 1,872 Climbing Houston Center
Thu 06:21:00 PM 29.9440 -96.4781 276° West  Level FlightAware Approximate
Thu 06:21:10 PM 29.5986 -95.9511 327° Northwest 292 336 12,900  Level Houston Center
Thu 06:22:12 PM 29.6761 -96.0089 327° Northwest 305 351 15,000 1,984 Climbing Houston Center
Thu 06:23:14 PM 29.7414 -96.0756 318° Northwest 314 361 17,000 2,032 Climbing Houston Center
Thu 06:24:16 PM 29.7506 -96.1769 276° West 320 368 19,200 2,323 Climbing Houston Center
Thu 06:25:18 PM 29.7864 -96.2886 290° West 312 359 21,800 1,887 Climbing Houston Center
Thu 06:26:20 PM 29.8086 -96.3856 285° West 315 362 23,100 1,104 Climbing Houston Center
Thu 06:27:23 PM 29.8331 -96.4869 286° West 329 379 24,100 864 Climbing Houston Center
Thu 06:28:25 PM 29.8600 -96.5972 286° West 357 411 24,900 871 Climbing Houston Center
Thu 06:29:27 PM 29.8875 -96.7111 286° West 369 425 25,900 1,113 Climbing Houston Center
Thu 06:30:29 PM 29.9214 -96.8469 286° West 372 428 27,200 1,210 Climbing Houston Center
Thu 06:31:31 PM 29.9492 -96.9617 286° West 374 430 28,400 1,161 Climbing Houston Center
Thu 06:32:33 PM 29.9764 -97.0731 286° West 366 421 29,600 774 Climbing Houston Center
Thu 06:33:35 PM 30.0061 -97.1867 287° West 370 426 30,000 192 Climbing Houston Center
Thu 06:34:38 PM 30.0844 -97.2717 317° Northwest 396 456 30,000 528 Level Houston Center
Thu 06:35:40 PM 30.1897 -97.3358 332° Northwest 397 457 31,100 1,210 Climbing Houston Center
Thu 06:36:42 PM 30.2906 -97.4131 327° Northwest 370 426 32,500 1,210 Climbing Houston Center
Thu 06:37:44 PM 30.3769 -97.4811 326° Northwest 368 423 33,600 1,065 Climbing Houston Center
Thu 06:38:46 PM 30.4600 -97.5531 323° Northwest 366 421 34,700 1,016 Climbing Houston Center
Thu 06:39:48 PM 30.5444 -97.6181 326° Northwest 360 414 35,700 677 Climbing Houston Center
Thu 06:40:50 PM 30.6253 -97.6878 323° Northwest 357 411 36,100 144 Climbing Houston Center
Thu 06:41:53 PM 30.7125 -97.7556 326° Northwest 367 422 36,000 -48 Descending Houston Center
Thu 06:42:56 PM 30.7997 -97.8272 325° Northwest 377 434 36,000 145 Level Houston Center
Thu 06:43:57 PM 30.8864 -97.9003 324° Northwest 379 436 36,300 683 Climbing Houston Center
Thu 06:44:59 PM 30.9725 -97.9644 327° Northwest 366 421 37,400 871 Climbing Houston Center
Thu 06:46:01 PM 31.0625 -98.0414 324° Northwest 343 395 38,100 339 Climbing Houston Center
Thu 06:47:03 PM 31.1414 -98.1078 324° Northwest 343 395 38,100 -48 Level Houston Center
Thu 06:48:05 PM 31.2247 -98.1728 326° Northwest 353 406 38,000 -51 Descending Houston Center
Thu 06:49:01 PM 31.2922 -98.2328 323° Northwest 360 414 38,000  Level Fort Worth Center
Thu 06:50:03 PM 31.3894 -98.3100 326° Northwest 359 413 38,000  Level Fort Worth Center
Thu 06:51:06 PM 31.4703 -98.3819 323° Northwest 359 413 38,000  Level Fort Worth Center
Thu 06:52:08 PM 31.5544 -98.4475 326° Northwest 359 413 38,000  Level Fort Worth Center
Thu 06:53:10 PM 31.6369 -98.5167 324° Northwest 360 414 38,000  Level Fort Worth Center
Thu 06:54:12 PM 31.7194 -98.5853 325° Northwest 360 414 38,000  Level Fort Worth Center
Thu 06:55:14 PM 31.8028 -98.6533 325° Northwest 361 415 38,000  Level Fort Worth Center
Thu 06:56:16 PM 31.8839 -98.7233 324° Northwest 358 412 38,000  Level Fort Worth Center
Thu 06:57:18 PM 31.9772 -98.8006 325° Northwest 358 412 38,000  Level Fort Worth Center
Thu 06:58:20 PM 32.0583 -98.8675 325° Northwest 357 411 38,000  Level Fort Worth Center
Thu 06:59:22 PM 32.1386 -98.9358 324° Northwest 358 412 38,000  Level Fort Worth Center
Thu 07:00:24 PM 32.2200 -99.0042 325° Northwest 358 412 38,000  Level Fort Worth Center
Thu 07:01:26 PM 32.3008 -99.0742 324° Northwest 360 414 38,000  Level Fort Worth Center
Thu 07:02:29 PM 32.4000 -99.1553 325° Northwest 360 414 38,000  Level Fort Worth Center
Thu 07:03:31 PM 32.4811 -99.2253 324° Northwest 361 415 38,000  Level Fort Worth Center
Thu 07:04:33 PM 32.5639 -99.2958 324° Northwest 365 420 38,000  Level Fort Worth Center
Thu 07:05:35 PM 32.6450 -99.3664 324° Northwest 364 419 38,000  Level Fort Worth Center
Thu 07:06:37 PM 32.7272 -99.4356 325° Northwest 363 418 38,000  Level Fort Worth Center
Thu 07:07:39 PM 32.8094 -99.5058 324° Northwest 366 421 38,000  Level Fort Worth Center
Thu 07:08:41 PM 32.9064 -99.5906 324° Northwest 364 419 38,000  Level Fort Worth Center
Thu 07:09:43 PM 32.9889 -99.6594 325° Northwest 365 420 38,000  Level Fort Worth Center
Thu 07:10:45 PM 33.0708 -99.7311 324° Northwest 367 422 38,000  Level Fort Worth Center
Thu 07:11:47 PM 33.1525 -99.8019 324° Northwest 366 421 38,000  Level Fort Worth Center
Thu 07:12:49 PM 33.2353 -99.8733 324° Northwest 367 422 38,000  Level Fort Worth Center
Thu 07:13:51 PM 33.3336 -99.9611 323° Northwest 368 423 38,000  Level Fort Worth Center
Thu 07:14:53 PM 33.4169 -100.0311 325° Northwest 367 422 38,000  Level Fort Worth Center
Thu 07:15:55 PM 33.4969 -100.1028 323° Northwest 361 415 38,000  Level Fort Worth Center
Thu 07:16:57 PM 33.5800 -100.1736 325° Northwest 364 419 38,000  Level Fort Worth Center
Thu 07:17:59 PM 33.6628 -100.2442 325° Northwest 365 420 38,000  Level Fort Worth Center
Thu 07:19:02 PM 33.7433 -100.3183 323° Northwest 365 420 38,000  Level Fort Worth Center
Thu 07:20:04 PM 33.8425 -100.4025 325° Northwest 364 419 38,000  Level Fort Worth Center
Thu 07:21:06 PM 33.9244 -100.4742 324° Northwest 364 419 38,000  Level Fort Worth Center
Thu 07:22:08 PM 34.0047 -100.5489 322° Northwest 365 420 38,000  Level Fort Worth Center
Thu 07:23:10 PM 34.0917 -100.6247 324° Northwest 365 420 38,000  Level Fort Worth Center
Thu 07:24:12 PM 34.1731 -100.6978 323° Northwest 366 421 38,000  Level Fort Worth Center
Thu 07:25:14 PM 34.2539 -100.7725 323° Northwest 367 422 38,000 48 Level Fort Worth Center
Thu 07:26:16 PM 34.3372 -100.8447 324° Northwest 369 425 38,100  Climbing Fort Worth Center
Thu 07:27:18 PM 34.4347 -100.9339 323° Northwest 366 421 38,000 -48 Descending Fort Worth Center
Thu 07:28:20 PM 34.5161 -101.0067 324° Northwest 366 421 38,000  Level Fort Worth Center
Thu 07:29:22 PM 34.5961 -101.0817 322° Northwest 364 419 38,000  Level Fort Worth Center
Thu 07:30:24 PM 34.6778 -101.1561 323° Northwest 367 422 38,000 48 Level Fort Worth Center
Thu 07:31:26 PM 34.7603 -101.2297 324° Northwest 367 422 38,100 48 Climbing Fort Worth Center
Thu 07:32:28 PM 34.8564 -101.3214 322° Northwest 367 422 38,100 -48 Level Fort Worth Center
Thu 07:33:30 PM 34.9397 -101.3942 324° Northwest 369 425 38,000  Descending Fort Worth Center
Thu 07:34:32 PM 35.0200 -101.4689 323° Northwest 365 420 38,100  Climbing Fort Worth Center
Thu 07:35:34 PM 35.1014 -101.5442 323° Northwest 366 421 38,000 -48 Descending Fort Worth Center
Thu 07:36:36 PM 35.1928 -101.6253 324° Northwest 369 425 38,000  Level Fort Worth Center
Thu 07:37:38 PM 35.2731 -101.7014 322° Northwest 368 423 38,000  Level Fort Worth Center
Thu 07:38:40 PM 35.3553 -101.7775 323° Northwest 370 426 38,000 43 Level Fort Worth Center
Thu 07:39:57 PM 35.4597 -101.8722 324° Northwest 371 427 38,100 43 Climbing Albuquerque Center
Thu 07:40:59 PM 35.5494 -101.9614 321° Northwest 367 422 38,100  Level Albuquerque Center
Thu 07:42:00 PM 35.6331 -102.0358 324° Northwest 371 427 38,100 -49 Level Albuquerque Center
Thu 07:43:02 PM 35.7133 -102.1144 322° Northwest 370 426 38,000 -48 Descending Albuquerque Center
Thu 07:44:04 PM 35.7967 -102.1906 323° Northwest 372 428 38,000  Level Albuquerque Center
Thu 07:45:06 PM 35.8783 -102.2706 322° Northwest 373 429 38,000 48 Level Albuquerque Center
Thu 07:46:08 PM 35.9603 -102.3447 324° Northwest 370 426 38,100  Climbing Albuquerque Center
Thu 07:47:10 PM 36.0572 -102.4347 323° Northwest 365 420 38,000  Descending Albuquerque Center
Thu 07:48:12 PM 36.1344 -102.5139 320° Northwest 362 417 38,100 387 Climbing Albuquerque Center
Thu 07:49:14 PM 36.2133 -102.5842 324° Northwest 352 405 38,800 677 Climbing Albuquerque Center
Thu 07:50:16 PM 36.2872 -102.6569 322° Northwest 344 396 39,500 629 Climbing Albuquerque Center
Thu 07:51:18 PM 36.3600 -102.7247 323° Northwest 332 382 40,100 242 Climbing Albuquerque Center
Thu 07:52:20 PM 36.4325 -102.7947 322° Northwest 331 381 40,000  Descending Albuquerque Center
Thu 07:53:22 PM 36.5192 -102.8806 321° Northwest 337 388 40,100 48 Climbing Albuquerque Center
Thu 07:54:24 PM 36.5911 -102.9478 323° Northwest 344 396 40,100  Level Albuquerque Center
Thu 07:55:26 PM 36.6778 -103.0339 321° Northwest 347 399 40,100  Level Albuquerque Center
Thu 07:56:28 PM 36.7506 -103.1050 322° Northwest 348 400 40,100  Level Albuquerque Center
Thu 07:57:30 PM 36.8256 -103.1744 323° Northwest 348 400 40,100 -49 Level Albuquerque Center
Thu 07:58:31 PM 36.9106 -103.2603 321° Northwest 351 404 40,000  Descending Albuquerque Center
Thu 07:59:33 PM 36.9844 -103.3311 323° Northwest 350 403 40,100 48 Climbing Albuquerque Center
Thu 08:00:35 PM 37.0692 -103.4150 322° Northwest 349 402 40,100  Level Albuquerque Center
Thu 08:01:37 PM 37.1419 -103.4858 322° Northwest 347 399 40,100  Level Albuquerque Center
Thu 08:02:39 PM 37.2272 -103.5683 322° Northwest 348 400 40,100  Level Albuquerque Center
Thu 08:03:18 PM 37.2625 -103.6039 321° Northwest 348 400 40,100  Level Denver Center
Thu 08:04:21 PM 37.3619 -103.6586 336° Northwest 357 411 40,100 -48 Level Denver Center
Thu 08:05:23 PM 37.4672 -103.7053 341° North 361 415 40,000  Descending Denver Center
Thu 08:06:25 PM 37.5589 -103.7397 343° North 362 417 40,100 48 Climbing Denver Center
Thu 08:07:27 PM 37.6628 -103.7875 340° North 358 412 40,100 -48 Level Denver Center
Thu 08:08:29 PM 37.7533 -103.8206 344° North 357 411 40,000  Descending Denver Center
Thu 08:09:31 PM 37.8583 -103.8650 342° North 359 413 40,100 48 Climbing Denver Center
Thu 08:10:33 PM 37.9506 -103.9028 342° North 363 418 40,100  Level Denver Center
Thu 08:11:35 PM 38.0575 -103.9439 343° North 361 415 40,100  Level Denver Center
Thu 08:12:37 PM 38.1481 -103.9828 341° North 359 413 40,100  Level Denver Center
Thu 08:13:39 PM 38.2542 -104.0233 343° North 357 411 40,100  Level Denver Center
Thu 08:14:41 PM 38.3436 -104.0617 341° North 355 409 40,100 -145 Level Denver Center
Thu 08:15:43 PM 38.4508 -104.1058 342° North 360 414 39,800 -441 Descending Denver Center
Thu 08:16:57 PM 38.5572 -104.1486 343° North 368 423 39,100 -657 Descending Denver Center
Thu 08:18:00 PM 38.6694 -104.1972 341° North 355 409 38,300 -768 Descending Denver Center
Thu 08:19:02 PM 38.7625 -104.2308 344° North 348 400 37,500 -968 Descending Denver Center
Thu 08:20:04 PM 38.8478 -104.2714 340° North 330 380 36,300 -1,403 Descending Denver Center
Thu 08:21:06 PM 38.9375 -104.3044 344° North 334 384 34,600 -1,258 Descending Denver Center
Thu 08:22:08 PM 39.0297 -104.3431 342° North 346 398 33,700 -823 Descending Denver Center
Thu 08:23:10 PM 39.1375 -104.3897 341° North 342 394 32,900 -968 Descending Denver Center
Thu 08:24:12 PM 39.2303 -104.4264 343° North 348 400 31,700 -1,258 Descending Denver Center
Thu 08:25:14 PM 39.3281 -104.4686 342° North 367 422 30,300 -774 Descending Denver Center
Thu 08:26:16 PM 39.4258 -104.5100 342° North 371 427 30,100 -97 Descending Denver Center
Thu 08:27:18 PM 39.5225 -104.5483 343° North 368 423 30,100  Level Denver Center
Thu 08:28:20 PM 39.6358 -104.5972 342° North 369 425 30,100  Level Denver Center
Thu 08:29:22 PM 39.7294 -104.6369 342° North 364 419 30,100 -48 Level Denver Center
Thu 08:30:24 PM 39.8244 -104.6769 342° North 364 419 30,000 -968 Descending Denver Center
Thu 08:31:26 PM 39.9225 -104.7200 341° North 370 426 28,100 -968 Descending Denver Center
Thu 08:32:28 PM 40.0172 -104.8164 322° Northwest 370 426 28,000 -244 Descending Denver Center
Thu 08:33:29 PM 40.0258 -104.9222 276° West 377 434 27,600 -484 Descending Denver Center
Thu 08:34:32 PM 40.0286 -105.0769 271° West 361 415 27,000 -290 Descending Denver Center
Thu 08:35:33 PM 40.0242 -105.2092 268° West 364 419 27,000  Level Denver Center
Thu 08:36:35 PM 40.0239 -105.3467 270° West 379 436 27,000 -339 Level Denver Center
Thu 08:37:37 PM 40.0183 -105.4844 267° West 381 438 26,300 -1,161 Descending Denver Center
Thu 08:38:39 PM 40.0178 -105.6272 270° West 331 381 24,600 -1,113 Descending Denver Center
Thu 08:39:41 PM 40.0167 -105.7378 269° West 310 357 24,000 -871 Descending Denver Center
Thu 08:40:43 PM 40.0139 -105.8444 268° West 299 344 22,800 -1,355 Descending Denver Center
Thu 08:41:45 PM 40.0125 -105.9500 269° West 293 337 21,200 -1,659 Descending Denver Center
Thu 08:42:46 PM 40.0122 -106.0653 270° West 314 361 19,400 -1,854 Descending Denver Center
Thu 08:43:48 PM 40.0067 -106.1911 267° West 326 375 17,400 -1,645 Descending Denver Center
Thu 08:44:50 PM 40.0061 -106.3133 270° West 333 383 16,000 -1,452 Descending Denver Center
Thu 08:45:52 PM 40.0053 -106.4203 269° West 317 365 14,400 -919 Descending Denver Center
Thu 08:46:54 PM 39.9442 -106.4642 209° Southwest 285 328 14,100 -293 Descending Denver Center
Thu 08:47:55 PM 39.8606 -106.4850 191° South 266 306 13,800 -146 Descending Denver Center
Thu 08:48:57 PM 39.8069 -106.5153 203° Southwest 227 261 13,800 -387 Level Denver Center
Thu 08:49:59 PM 39.7556 -106.5450 204° Southwest 222 255 13,000 -435 Descending Denver Center
Thu 08:51:01 PM 39.6931 -106.5847 206° Southwest 245 282 12,900 -339 Descending Denver Center
Thu 08:52:03 PM 39.6761 -106.6631 254° West 198 228 12,300 -1,317 Descending Denver Center
Thu 08:53:04 PM 39.6689 -106.7347 263° West 197 227 10,200 -1,659 Descending Denver Center
Thu 08:54:06 PM 39.6600 -106.7956 259° West 177 204 8,900 -1,161 Descending Denver Center
Thu 08:55:08 PM 39.6503 -106.8456 256° West 158 182 7,800 -1,065 Descending Denver Center
Thu 08:56:10 PM 39.6439 -106.8981 261° West 149 171 6,700 -1,065 Descending Denver Center

Login

Don't have an account? Register now (free) for customized features, flight alerts, and more!